Time;durP1;ratioP1;P1;durP2;ratioP2;P2;SDS_P1;SDS_P2;PMS_P1;PMS_P2;Temp;Humidity;BMP_temperature;BMP_pressure;BME280_temperature;BME280_humidity;BME280_pressure;Samples;Min_cycle;Max_cycle;Signal;HPM_P1;HPM_P2
2021/12/28 16:20:21;;;;;;;51.70;30.90;;;;;;;-4.37;75.55;99442.59;100206;1347;636502;-65
2021/12/28 16:22:53;;;;;;;52.70;30.80;;;;;;;-4.37;74.74;99445.48;102242;1324;137201;-65
2021/12/28 16:25:25;;;;;;;55.00;31.40;;;;;;;-4.43;74.68;99445.57;102469;1326;94457;-65
2021/12/28 16:27:57;;;;;;;52.00;29.40;;;;;;;-4.47;74.68;99432.77;102349;1326;138176;-64
2021/12/28 16:30:31;;;;;;;52.10;30.50;;;;;;;-4.52;75.03;99446.09;102348;1326;109091;-65
2021/12/28 16:33:03;;;;;;;54.40;29.60;;;;;;;-4.57;74.95;99440.94;102346;1319;108434;-64
2021/12/28 16:35:35;;;;;;;48.00;27.70;;;;;;;-4.59;75.16;99440.73;102697;1327;138272;-65
2021/12/28 16:38:07;;;;;;;53.00;29.20;;;;;;;-4.61;75.56;99433.59;103550;1315;94421;-65
2021/12/28 16:40:39;;;;;;;50.10;27.40;;;;;;;-4.60;75.50;99438.69;103452;1313;136876;-67
2021/12/28 16:43:12;;;;;;;55.50;29.30;;;;;;;-4.60;75.47;99428.17;103426;1311;108966;-65
2021/12/28 16:45:44;;;;;;;51.90;29.60;;;;;;;-4.62;75.78;99436.45;102533;1312;139550;-65
2021/12/28 16:48:16;;;;;;;46.20;27.00;;;;;;;-4.63;75.70;99433.73;102673;1310;96646;-65
2021/12/28 16:50:50;;;;;;;46.30;27.30;;;;;;;-4.62;75.75;99424.59;103448;1310;96614;-65
2021/12/28 16:53:26;;;;;;;48.70;27.40;;;;;;;-4.61;75.74;99431.21;103490;1311;139012;-65
2021/12/28 16:55:58;;;;;;;49.10;29.20;;;;;;;-4.60;75.70;99422.75;104247;1316;109451;-65
2021/12/28 16:58:30;;;;;;;49.40;29.60;;;;;;;-4.60;75.47;99434.12;103477;1311;137148;-66
2021/12/28 17:01:03;;;;;;;52.90;29.40;;;;;;;-4.61;75.67;99437.48;103464;1314;97205;-66
2021/12/28 17:03:36;;;;;;;50.20;26.80;;;;;;;-4.62;75.84;99439.35;103310;1313;139073;-66
2021/12/28 17:06:08;;;;;;;43.40;25.50;;;;;;;-4.62;75.77;99439.84;103060;1312;109782;-65
2021/12/28 17:08:41;;;;;;;47.80;25.80;;;;;;;-4.61;75.85;99440.54;103487;1316;109317;-66
2021/12/28 17:11:13;;;;;;;41.40;23.90;;;;;;;-4.59;75.65;99439.89;103303;1312;137536;-66
2021/12/28 17:13:45;;;;;;;49.70;27.40;;;;;;;-4.58;75.76;99438.55;102928;1311;95278;-65
2021/12/28 17:16:18;;;;;;;48.30;26.40;;;;;;;-4.58;75.70;99440.25;102792;1312;140177;-64
2021/12/28 17:18:51;;;;;;;47.10;24.90;;;;;;;-4.58;75.65;99434.14;103528;1312;110015;-64
2021/12/28 17:21:25;;;;;;;42.40;24.40;;;;;;;-4.58;75.75;99437.02;103439;1312;138910;-65
2021/12/28 17:23:57;;;;;;;41.20;23.30;;;;;;;-4.58;75.78;99425.83;103569;1315;108377;-64
2021/12/28 17:26:29;;;;;;;42.40;23.50;;;;;;;-4.56;75.67;99427.73;103599;1312;95232;-65
2021/12/28 17:29:01;;;;;;;48.10;25.70;;;;;;;-4.54;75.52;99414.00;103484;1313;137028;-65
2021/12/28 17:31:32;;;;;;;43.50;24.80;;;;;;;-4.54;75.66;99424.86;103061;1312;109727;-65
2021/12/28 17:34:05;;;;;;;44.10;24.70;;;;;;;-4.55;75.62;99430.44;103468;1313;138193;-65
2021/12/28 17:36:38;;;;;;;42.90;24.40;;;;;;;-4.57;75.70;99414.98;103079;1312;108860;-65
2021/12/28 17:39:10;;;;;;;39.30;22.40;;;;;;;-4.59;75.66;99417.00;103225;1312;95042;-65
2021/12/28 17:41:42;;;;;;;37.00;22.10;;;;;;;-4.59;75.91;99425.48;103346;1313;137689;-65
2021/12/28 17:44:15;;;;;;;46.20;23.80;;;;;;;-4.58;75.82;99420.23;103574;1312;109407;-65
2021/12/28 17:46:48;;;;;;;41.50;24.40;;;;;;;-4.57;75.77;99405.98;103392;1312;137133;-65
2021/12/28 17:49:20;;;;;;;38.90;22.90;;;;;;;-4.57;75.87;99404.29;103509;1312;109152;-65
2021/12/28 17:51:51;;;;;;;41.90;24.50;;;;;;;-4.58;75.81;99411.58;103444;1312;138641;-66
2021/12/28 17:54:24;;;;;;;41.90;23.80;;;;;;;-4.59;75.88;99401.38;103300;1312;96140;-64
2021/12/28 17:56:56;;;;;;;38.40;23.10;;;;;;;-4.60;75.77;99406.46;103295;1315;109470;-67
2021/12/28 17:59:29;;;;;;;37.40;21.30;;;;;;;-4.60;75.64;99405.11;103268;1313;138591;-65
2021/12/28 18:02:01;;;;;;;40.70;23.10;;;;;;;-4.58;75.97;99424.13;103578;1312;108992;-64
2021/12/28 18:04:33;;;;;;;39.80;22.30;;;;;;;-4.58;75.81;99402.42;103313;1312;137282;-65
2021/12/28 18:07:06;;;;;;;43.50;25.10;;;;;;;-4.58;75.76;99406.14;103150;1312;95304;-65
2021/12/28 18:09:38;;;;;;;41.50;22.10;;;;;;;-4.59;75.67;99402.07;102951;1312;139279;-65
2021/12/28 18:12:10;;;;;;;43.60;23.20;;;;;;;-4.60;75.83;99417.65;103932;1315;108868;-64
2021/12/28 18:14:42;;;;;;;37.50;20.80;;;;;;;-4.59;75.50;99421.73;104601;1314;109090;-65
2021/12/28 18:17:14;;;;;;;41.60;23.00;;;;;;;-4.58;75.65;99397.50;103877;1317;137548;-65
2021/12/28 18:19:46;;;;;;;40.00;23.00;;;;;;;-4.55;75.81;99394.30;103595;1313;95461;-64
2021/12/28 18:22:18;;;;;;;40.30;23.00;;;;;;;-4.53;75.73;99400.27;104719;1312;137922;-64
2021/12/28 18:24:50;;;;;;;48.00;23.80;;;;;;;-4.54;75.77;99391.61;103855;1311;108984;-64
2021/12/28 18:27:24;;;;;;;41.80;24.20;;;;;;;-4.55;75.57;99401.44;103419;1311;137883;-64
2021/12/28 18:29:58;;;;;;;43.20;23.90;;;;;;;-4.57;75.70;99383.94;103451;1311;95238;-66
2021/12/28 18:32:30;;;;;;;39.90;23.20;;;;;;;-4.58;75.92;99397.84;102744;1312;95261;-64
2021/12/28 18:35:02;;;;;;;42.30;23.20;;;;;;;-4.56;75.65;99388.02;103449;1314;137834;-65
2021/12/28 18:37:34;;;;;;;44.90;25.00;;;;;;;-4.54;75.79;99389.91;103545;1310;109141;-64
2021/12/28 18:40:08;;;;;;;47.00;25.70;;;;;;;-4.54;75.66;99379.39;104703;1315;137368;-65
2021/12/28 18:42:40;;;;;;;46.50;25.80;;;;;;;-4.54;75.60;99379.57;104782;1311;93437;-65
2021/12/28 18:45:13;;;;;;;46.70;26.20;;;;;;;-4.56;75.36;99382.77;104792;1311;93264;-65
2021/12/28 18:47:45;;;;;;;44.20;24.40;;;;;;;-4.57;75.53;99385.98;104656;1311;138150;-65
2021/12/28 18:50:19;;;;;;;42.90;23.90;;;;;;;-4.57;75.53;99387.00;103767;1312;108699;-64
2021/12/28 18:52:51;;;;;;;45.10;25.70;;;;;;;-4.53;75.48;99391.45;103335;1312;137575;-65
2021/12/28 18:55:23;;;;;;;45.50;27.60;;;;;;;-4.50;75.62;99398.44;103564;1311;95149;-65
2021/12/28 18:57:55;;;;;;;47.10;26.30;;;;;;;-4.50;75.55;99399.13;103349;1312;137248;-65
2021/12/28 19:00:27;;;;;;;47.70;25.00;;;;;;;-4.49;75.38;99393.02;103603;1312;110022;-65
2021/12/28 19:03:23;;;;;;;47.20;25.60;;;;;;;-4.51;75.39;99391.98;102849;1312;108947;-65
2021/12/28 19:05:56;;;;;;;;;;;;;;;-4.52;75.40;99399.61;103555;1314;137900;-64
2021/12/28 19:08:29;;;;;;;40.70;22.10;;;;;;;-4.53;75.37;99396.04;103634;1312;95681;-64
2021/12/28 19:11:01;;;;;;;47.00;25.40;;;;;;;-4.51;75.70;99389.77;103555;1313;138180;-64
2021/12/28 19:13:34;;;;;;;42.90;24.80;;;;;;;-4.49;75.41;99378.27;103792;1310;110036;-65
2021/12/28 19:16:07;;;;;;;48.30;26.50;;;;;;;-4.49;75.49;99380.14;103696;1310;139206;-64
2021/12/28 19:18:41;;;;;;;50.20;25.20;;;;;;;-4.49;75.56;99379.45;103565;1311;107928;-64
2021/12/28 19:21:14;;;;;;;45.20;24.60;;;;;;;-4.51;75.42;99374.00;103618;1310;95249;-64
2021/12/28 19:23:46;;;;;;;40.20;23.60;;;;;;;-4.52;75.49;99365.51;103586;1313;138047;-64
2021/12/28 19:26:23;;;;;;;42.90;23.20;;;;;;;-4.52;75.31;99364.15;103720;1310;109382;-63
2021/12/28 19:28:55;;;;;;;46.90;24.80;;;;;;;-4.51;75.80;99374.52;103576;1310;137810;-64
2021/12/28 19:31:27;;;;;;;47.00;25.50;;;;;;;-4.50;75.70;99364.17;103683;1311;109087;-64
2021/12/28 19:33:59;;;;;;;46.80;25.70;;;;;;;-4.49;75.74;99369.61;103569;1311;138330;-65
2021/12/28 19:36:31;;;;;;;47.30;25.40;;;;;;;-4.50;75.81;99358.92;103732;1311;95112;-66
2021/12/28 19:39:04;;;;;;;47.80;26.20;;;;;;;-4.50;75.58;99361.80;103698;1309;109861;-63
2021/12/28 19:41:36;;;;;;;45.60;23.50;;;;;;;-4.52;76.04;99358.90;103603;1310;138421;-64
2021/12/28 19:44:08;;;;;;;45.90;22.30;;;;;;;-4.52;75.96;99358.73;103718;1314;109243;-65
2021/12/28 19:46:40;;;;;;;44.50;23.70;;;;;;;-4.50;75.90;99367.90;103641;1311;139299;-64
2021/12/28 19:49:14;;;;;;;45.10;24.00;;;;;;;-4.48;75.85;99360.33;103350;1311;96552;-65
2021/12/28 19:51:46;;;;;;;44.70;25.10;;;;;;;-4.46;76.01;99341.19;104808;1312;137625;-64
2021/12/28 19:54:22;;;;;;;48.40;25.00;;;;;;;-4.45;76.03;99348.48;104661;1311;107738;-65
2021/12/28 19:56:54;;;;;;;45.50;24.80;;;;;;;-4.45;75.86;99332.87;103668;1311;109004;-64
2021/12/28 19:59:26;;;;;;;43.60;22.50;;;;;;;-4.44;75.83;99346.96;103571;1310;138356;-64
2021/12/28 20:01:58;;;;;;;46.20;24.00;;;;;;;-4.43;76.08;99342.41;103720;1311;95284;-65
2021/12/28 20:04:30;;;;;;;43.30;23.50;;;;;;;-4.41;76.15;99333.43;103612;1310;137537;-65
2021/12/28 20:07:03;;;;;;;46.00;24.50;;;;;;;-4.39;75.95;99332.60;103699;1309;108900;-65
2021/12/28 20:09:35;;;;;;;44.20;23.70;;;;;;;-4.38;75.85;99331.93;103553;1310;137536;-66
2021/12/28 20:12:11;;;;;;;45.10;23.10;;;;;;;-4.39;76.09;99332.95;103687;1310;95138;-65
2021/12/28 20:14:43;;;;;;;42.40;22.40;;;;;;;-4.39;76.00;99342.80;104429;1310;94394;-65
2021/12/28 20:17:14;;;;;;;42.80;22.90;;;;;;;-4.38;76.05;99317.52;103555;1309;138112;-65
2021/12/28 20:19:46;;;;;;;39.10;21.40;;;;;;;-4.37;75.83;99330.59;103692;1310;109062;-65
2021/12/28 20:22:18;;;;;;;43.70;22.10;;;;;;;-4.36;75.96;99329.92;103568;1312;138664;-65
2021/12/28 20:24:50;;;;;;;45.30;24.60;;;;;;;-4.34;75.98;99330.47;103662;1313;95250;-65
2021/12/28 20:27:22;;;;;;;42.30;22.60;;;;;;;-4.34;75.98;99333.85;103688;1309;95167;-65
2021/12/28 20:29:54;;;;;;;43.40;23.30;;;;;;;-4.35;76.06;99327.56;103226;1308;138413;-66
2021/12/28 20:32:26;;;;;;;40.00;21.90;;;;;;;-4.35;75.71;99320.77;103668;1312;108992;-65
2021/12/28 20:34:58;;;;;;;43.30;22.30;;;;;;;-4.34;75.86;99328.77;103513;1312;138239;-66
2021/12/28 20:37:31;;;;;;;42.90;22.40;;;;;;;-4.31;75.92;99318.45;103702;1312;97109;-65
2021/12/28 20:40:04;;;;;;;45.80;23.50;;;;;;;-4.29;75.87;99317.48;103626;1310;139102;-65
2021/12/28 20:42:37;;;;;;;38.60;20.50;;;;;;;-4.28;75.69;99312.23;103594;1310;109693;-66
2021/12/28 20:45:12;;;;;;;47.60;24.30;;;;;;;-4.28;75.74;99310.37;103633;1310;108918;-65
2021/12/28 20:47:45;;;;;;;43.80;24.50;;;;;;;-4.29;75.87;99298.13;104611;1309;140983;-66
2021/12/28 20:50:21;;;;;;;40.80;22.40;;;;;;;-4.29;75.91;99295.75;103673;1315;96466;-65
2021/12/28 20:52:53;;;;;;;36.80;19.90;;;;;;;-4.29;76.00;99296.27;103564;1312;138427;-64
2021/12/28 20:55:25;;;;;;;41.10;22.20;;;;;;;-4.28;75.92;99288.98;103627;1312;110052;-65
2021/12/28 20:57:57;;;;;;;41.00;21.00;;;;;;;-4.27;76.17;99311.56;103607;1314;137898;-65
2021/12/28 21:00:29;;;;;;;43.40;22.80;;;;;;;-4.25;75.93;99281.70;103577;1312;110030;-65
2021/12/28 21:03:04;;;;;;;41.60;22.40;;;;;;;-4.25;75.90;99279.67;102900;1312;96960;-65
2021/12/28 21:05:38;;;;;;;38.50;22.20;;;;;;;-4.26;75.96;99279.84;102751;1310;139612;-65
2021/12/28 21:08:11;;;;;;;39.60;21.00;;;;;;;-4.25;75.85;99290.19;103134;1309;109743;-65
2021/12/28 21:10:46;;;;;;;40.90;22.50;;;;;;;-4.23;75.99;99300.56;104218;1309;138547;-66
2021/12/28 21:13:18;;;;;;;40.70;22.10;;;;;;;-4.21;75.98;99289.05;104559;1309;108824;-66
2021/12/28 21:15:58;;;;;;;37.20;22.00;;;;;;;-4.19;75.86;99288.55;103483;1309;138147;-66
2021/12/28 21:18:31;;;;;;;39.00;21.50;;;;;;;-4.18;75.88;99299.27;103706;1310;96524;-66
2021/12/28 21:21:03;;;;;;;49.20;24.60;;;;;;;-4.19;75.82;99302.64;103704;1312;111183;-65
2021/12/28 21:23:35;;;;;;;44.10;23.50;;;;;;;-4.20;76.16;99288.55;103616;1312;138910;-66
2021/12/28 21:26:07;;;;;;;38.30;21.60;;;;;;;-4.19;76.02;99282.79;103735;1313;108769;-65
2021/12/28 21:28:39;;;;;;;37.10;21.70;;;;;;;-4.17;75.81;99287.39;103565;1310;139512;-66
2021/12/28 21:31:11;;;;;;;42.50;21.70;;;;;;;-4.15;76.00;99287.75;103734;1310;96480;-66
2021/12/28 21:33:43;;;;;;;41.60;22.00;;;;;;;-4.13;76.04;99284.89;103631;1311;138347;-66
2021/12/28 21:36:16;;;;;;;43.30;23.00;;;;;;;-4.13;76.07;99290.85;103762;1309;109457;-65
2021/12/28 21:38:47;;;;;;;38.60;21.90;;;;;;;-4.13;75.85;99279.98;103742;1311;108687;-65
2021/12/28 21:41:19;;;;;;;40.60;22.10;;;;;;;-4.13;76.12;99277.41;103530;1313;138592;-66
2021/12/28 21:43:51;;;;;;;36.60;21.00;;;;;;;-4.14;76.18;99270.95;103781;1312;96511;-65
2021/12/28 21:46:23;;;;;;;38.90;22.50;;;;;;;-4.13;76.08;99279.98;103565;1312;137702;-66
2021/12/28 21:48:55;;;;;;;42.30;23.80;;;;;;;-4.11;76.10;99276.45;103742;1313;109139;-66
2021/12/28 21:51:27;;;;;;;40.30;22.40;;;;;;;-4.11;75.97;99289.85;103729;1311;109106;-66
2021/12/28 21:53:59;;;;;;;45.80;24.70;;;;;;;-4.12;76.18;99275.41;103644;1308;137852;-67
2021/12/28 21:56:30;;;;;;;39.80;22.60;;;;;;;-4.14;76.10;99275.38;103701;1309;96460;-65
2021/12/28 21:59:02;;;;;;;39.90;23.00;;;;;;;-4.15;76.31;99264.49;103643;1309;138321;-66
2021/12/28 22:01:34;;;;;;;41.00;22.50;;;;;;;-4.15;76.22;99254.64;103702;1310;109018;-66
2021/12/28 22:04:07;;;;;;;40.40;24.60;;;;;;;-4.15;76.29;99256.52;103645;1309;138528;-67
2021/12/28 22:06:40;;;;;;;47.20;25.20;;;;;;;-4.13;76.27;99244.14;103640;1310;96491;-67
2021/12/28 22:09:12;;;;;;;45.90;25.20;;;;;;;-4.12;76.11;99248.75;103738;1312;96497;-66
2021/12/28 22:11:44;;;;;;;49.80;26.90;;;;;;;-4.12;76.61;99253.84;103611;1309;137411;-66
2021/12/28 22:14:16;;;;;;;44.60;25.10;;;;;;;-4.15;76.23;99255.15;103671;1312;109751;-67
2021/12/28 22:16:48;;;;;;;44.90;24.80;;;;;;;-4.15;76.35;99257.20;103626;1308;138428;-65
2021/12/28 22:19:21;;;;;;;45.30;23.80;;;;;;;-4.14;76.42;99260.10;102836;1310;96461;-66
2021/12/28 22:21:56;;;;;;;42.20;23.20;;;;;;;-4.11;76.53;99259.30;103575;1311;138859;-67
2021/12/28 22:24:29;;;;;;;45.60;26.20;;;;;;;-4.07;76.59;99251.86;103793;1310;110319;-65
2021/12/28 22:27:01;;;;;;;45.30;25.50;;;;;;;-4.06;76.20;99263.07;103888;1310;108165;-66
2021/12/28 22:29:32;;;;;;;48.80;27.00;;;;;;;-4.05;76.48;99252.22;104525;1310;137554;-66
2021/12/28 22:32:06;;;;;;;51.10;27.50;;;;;;;-4.05;76.47;99250.35;105013;1309;95018;-66
2021/12/28 22:34:40;;;;;;;54.60;27.20;;;;;;;-4.05;76.58;99238.30;103629;1311;138028;-66
2021/12/28 22:37:11;;;;;;;45.80;25.10;;;;;;;-4.04;76.44;99232.86;105010;1311;111492;-67
2021/12/28 22:39:43;;;;;;;49.30;26.00;;;;;;;-4.03;76.22;99234.74;104098;1313;138903;-65
2021/12/28 22:42:16;;;;;;;46.00;25.30;;;;;;;-4.01;76.25;99233.41;104890;1304;109900;-65
2021/12/28 22:44:47;;;;;;;49.60;27.20;;;;;;;-3.99;76.30;99234.44;104079;1310;96515;-65
2021/12/28 22:47:19;;;;;;;43.60;25.60;;;;;;;-3.97;76.21;99239.38;103663;1310;138558;-68
2021/12/28 22:49:51;;;;;;;50.40;26.50;;;;;;;-3.97;76.19;99225.97;103764;1313;111331;-66
2021/12/28 22:52:23;;;;;;;49.50;26.90;;;;;;;-3.98;76.26;99227.15;103929;1308;137877;-66
2021/12/28 22:54:55;;;;;;;47.30;25.20;;;;;;;-3.99;76.23;99215.42;105033;1309;108858;-69
2021/12/28 22:57:27;;;;;;;45.70;24.90;;;;;;;-4.00;76.19;99215.24;105016;1310;94586;-68
2021/12/28 22:59:58;;;;;;;43.60;23.70;;;;;;;-3.99;76.31;99205.91;104952;1312;138479;-70
2021/12/28 23:02:30;;;;;;;44.60;25.20;;;;;;;-3.96;76.39;99205.77;104986;1309;112536;-65
2021/12/28 23:05:02;;;;;;;47.20;25.40;;;;;;;-3.96;76.58;99220.04;104894;1309;137685;-66
2021/12/28 23:07:34;;;;;;;48.10;26.10;;;;;;;-3.96;76.44;99204.24;104961;1313;109090;-65
2021/12/28 23:10:07;;;;;;;48.20;26.10;;;;;;;-3.97;76.59;99196.25;104694;1311;138116;-65
2021/12/28 23:12:39;;;;;;;40.90;23.40;;;;;;;-3.97;76.36;99200.67;104194;1309;94481;-66
2021/12/28 23:15:13;;;;;;;43.70;23.30;;;;;;;-3.97;76.40;99203.21;104083;1310;111145;-67
2021/12/28 23:17:45;;;;;;;39.20;22.40;;;;;;;-3.96;76.10;99203.38;103494;1312;138429;-67
2021/12/28 23:20:20;;;;;;;43.40;24.40;;;;;;;-3.94;76.53;99208.87;103670;1309;108729;-67
2021/12/28 23:22:52;;;;;;;44.40;24.50;;;;;;;-3.92;76.30;99204.81;103612;1312;138402;-67
2021/12/28 23:25:24;;;;;;;43.40;24.80;;;;;;;-3.93;76.35;99210.57;103670;1312;96565;-67
2021/12/28 23:27:56;;;;;;;44.40;24.30;;;;;;;-3.95;76.34;99217.85;103609;1313;138804;-67
2021/12/28 23:30:29;;;;;;;38.80;21.40;;;;;;;-3.99;76.61;99204.73;103711;1312;109053;-66
2021/12/28 23:33:03;;;;;;;39.70;22.20;;;;;;;-4.01;76.29;99205.91;103630;1310;109613;-65
2021/12/28 23:35:38;;;;;;;38.00;21.30;;;;;;;-4.01;76.76;99205.22;103589;1312;138571;-66
2021/12/28 23:38:11;;;;;;;41.40;22.70;;;;;;;-4.01;76.65;99204.71;104456;1314;94950;-66
2021/12/28 23:40:43;;;;;;;42.00;23.60;;;;;;;-4.01;76.52;99198.95;103533;1310;137355;-66
2021/12/28 23:43:17;;;;;;;41.80;24.10;;;;;;;-4.01;76.72;99189.27;103630;1311;110690;-65
2021/12/28 23:45:48;;;;;;;40.00;22.60;;;;;;;-4.04;76.68;99198.75;103458;1310;137923;-64
2021/12/28 23:48:40;;;;;;;42.90;23.50;;;;;;;-4.06;76.75;99188.71;103677;1312;96731;-66
2021/12/28 23:51:12;;;;;;;36.30;19.20;;;;;;;-4.07;76.98;99192.95;103754;1309;96575;-65
2021/12/28 23:53:45;;;;;;;44.30;23.20;;;;;;;-4.07;77.05;99197.36;103543;1313;138093;-66
2021/12/28 23:56:19;;;;;;;40.10;23.30;;;;;;;-4.07;77.04;99204.84;103697;1309;107463;-66
2021/12/28 23:58:53;;;;;;;42.10;23.00;;;;;;;-4.07;76.65;99199.92;103646;1315;137788;-65
